Kittrell, Texas
Current Conditions -  °F | °C
As of 5:35 PM on Saturday 20 Dec 2014 (Local Time) from KDKR Reporting Station
Overcast Overcast  
Wind Chill: 54°   Ceiling: 2000
Heat Index: 54°   Visibility: NA
Dew Point: 48°   Wind: 3mph
Humidity: 82%   Direction: 30°NNE
Pressure: 30.2"   Gusts: NA
Location:  30.9905°N, 95.3368°W
Report Text: KDKR 202335Z AUTO 03003KT OVC020 12/09 A3020 RMK AO2
Loading
Personal Weather Stations






























Interactive Weather Map New forecast layout! Learn more

10-Day Weather Forecast

Advertisements
Track Severe Weather on mobile